createdAt,value
2019-02-12T00:02:33.386Z,3.40
2019-02-12T00:07:38.372Z,3.60
2019-02-12T00:12:43.372Z,3.70
2019-02-12T00:17:48.367Z,3.80
2019-02-12T00:22:53.365Z,3.60
2019-02-12T00:27:58.400Z,3.30
2019-02-12T00:33:03.408Z,3.00
2019-02-12T00:38:08.387Z,2.80
2019-02-12T00:43:13.378Z,2.60
2019-02-12T00:48:18.400Z,2.60
2019-02-12T00:53:23.397Z,2.60
2019-02-12T00:58:28.437Z,2.70
2019-02-12T01:03:33.464Z,2.70
2019-02-12T01:08:38.444Z,2.50
2019-02-12T01:13:43.753Z,2.50
2019-02-12T01:18:48.748Z,2.60
2019-02-12T01:23:53.759Z,2.50
2019-02-12T01:28:58.791Z,2.50
2019-02-12T01:34:03.778Z,2.40
2019-02-12T01:39:12.145Z,2.40
2019-02-12T01:44:17.153Z,2.40
2019-02-12T01:49:22.167Z,2.40
2019-02-12T01:54:27.176Z,2.40
2019-02-12T01:59:32.204Z,2.50
2019-02-12T02:04:37.407Z,2.50
2019-02-12T02:09:42.379Z,2.50
2019-02-12T02:14:47.395Z,2.50
2019-02-12T02:19:52.473Z,2.50
2019-02-12T02:24:57.473Z,2.60
2019-02-12T02:30:02.489Z,2.80
2019-02-12T02:35:07.826Z,2.90
2019-02-12T02:40:12.835Z,3.00
2019-02-12T02:45:17.798Z,3.00
2019-02-12T02:50:22.796Z,3.00
2019-02-12T02:55:27.811Z,3.00
2019-02-12T03:00:32.828Z,3.00
2019-02-12T03:05:37.869Z,3.00
2019-02-12T03:10:42.884Z,2.90
2019-02-12T03:15:47.920Z,2.90
2019-02-12T03:20:52.968Z,2.80
2019-02-12T03:25:57.962Z,2.80
2019-02-12T03:31:02.989Z,2.80
2019-02-12T03:36:07.992Z,2.90
2019-02-12T03:41:12.991Z,2.80
2019-02-12T03:46:17.987Z,2.90
2019-02-12T03:51:23.023Z,2.90
2019-02-12T03:56:28.008Z,2.70
2019-02-12T04:01:33.018Z,2.60
2019-02-12T04:06:38.079Z,2.50
2019-02-12T04:11:43.064Z,2.60
2019-02-12T04:16:48.054Z,2.70
2019-02-12T04:21:53.043Z,2.90
2019-02-12T04:26:58.033Z,2.90
2019-02-12T04:32:03.033Z,3.00
2019-02-12T04:37:08.037Z,3.00
2019-02-12T04:42:13.051Z,2.90
2019-02-12T04:47:18.051Z,2.90
2019-02-12T04:52:31.573Z,2.80
2019-02-12T04:57:29.648Z,2.90
2019-02-12T05:02:34.699Z,2.90
2019-02-12T05:07:39.751Z,3.00
2019-02-12T05:12:44.765Z,3.00
2019-02-12T05:17:49.752Z,2.90
2019-02-12T05:22:54.785Z,2.80
2019-02-12T05:27:59.769Z,2.80
2019-02-12T05:33:04.775Z,2.70
2019-02-12T05:38:09.773Z,2.70
2019-02-12T05:43:14.792Z,2.60
2019-02-12T05:48:19.802Z,2.60
2019-02-12T05:53:24.797Z,2.60
2019-02-12T05:58:29.797Z,2.60
2019-02-12T06:03:34.810Z,2.60
2019-02-12T06:08:39.862Z,2.60
2019-02-12T06:13:44.892Z,2.60
2019-02-12T06:18:49.887Z,2.60
2019-02-12T06:23:54.884Z,2.70
2019-02-12T06:28:59.921Z,2.80
2019-02-12T06:34:04.978Z,2.80
2019-02-12T06:39:09.932Z,2.80
2019-02-12T06:44:14.929Z,2.80
2019-02-12T06:49:19.937Z,2.80
2019-02-12T06:54:24.940Z,2.80
2019-02-12T06:59:30.271Z,2.70
2019-02-12T07:04:35.271Z,2.70
2019-02-12T07:09:54.266Z,2.70
2019-02-12T07:15:22.202Z,2.70
2019-02-12T07:20:39.836Z,2.70
2019-02-12T07:26:26.697Z,2.70
2019-02-12T07:32:36.162Z,2.70
2019-02-12T07:38:05.264Z,2.90
2019-02-12T07:43:43.858Z,2.80
2019-02-12T07:49:06.040Z,2.80
2019-02-12T07:54:31.674Z,2.90
2019-02-12T07:59:57.046Z,2.90
2019-02-12T08:05:38.847Z,3.00
2019-02-12T08:10:59.368Z,3.10
2019-02-12T08:16:39.252Z,3.20
2019-02-12T08:22:21.654Z,3.20
2019-02-12T08:27:59.297Z,3.40
2019-02-12T08:33:37.539Z,3.50
2019-02-12T08:39:26.599Z,3.60
2019-02-12T08:45:17.458Z,3.80
2019-02-12T08:50:55.545Z,4.00
2019-02-12T08:56:27.858Z,4.30
2019-02-12T09:02:15.463Z,4.50
2019-02-12T09:07:35.044Z,4.70
2019-02-12T09:13:06.484Z,4.80
2019-02-12T09:18:19.418Z,4.80
2019-02-12T09:24:03.315Z,4.90
2019-02-12T09:29:36.180Z,5.00
2019-02-12T09:34:58.439Z,5.00
2019-02-12T09:40:50.609Z,5.00
2019-02-12T09:46:33.850Z,5.10
2019-02-12T09:52:13.378Z,5.10
2019-02-12T09:57:50.129Z,5.20
2019-02-12T10:03:27.400Z,5.20
2019-02-12T10:09:04.909Z,5.10
2019-02-12T10:14:32.180Z,5.10
2019-02-12T10:19:51.747Z,5.10
2019-02-12T10:25:03.718Z,5.30
2019-02-12T10:30:43.572Z,5.60
2019-02-12T10:35:48.642Z,5.70
2019-02-12T10:40:53.642Z,5.70
2019-02-12T10:45:58.734Z,5.90
2019-02-12T10:51:03.723Z,6.10
2019-02-12T10:56:10.556Z,6.30
2019-02-12T11:01:15.562Z,6.40
2019-02-12T11:06:20.546Z,6.40
2019-02-12T11:11:25.579Z,6.50
2019-02-12T11:16:30.570Z,6.70
2019-02-12T11:21:35.563Z,6.80
2019-02-12T11:26:40.579Z,7.10
2019-02-12T11:31:45.571Z,7.30
2019-02-12T11:36:50.558Z,7.30
2019-02-12T11:41:55.539Z,7.20
2019-02-12T11:47:00.531Z,7.10
2019-02-12T11:52:05.523Z,7.20
2019-02-12T11:57:10.527Z,7.60
2019-02-12T12:02:15.656Z,7.80
2019-02-12T12:07:20.718Z,7.90
2019-02-12T12:12:25.730Z,8.00
2019-02-12T12:17:30.729Z,8.20
2019-02-12T12:22:35.711Z,8.00
2019-02-12T12:27:40.709Z,7.80
2019-02-12T12:32:45.684Z,8.10
2019-02-12T12:37:50.670Z,8.20
2019-02-12T12:42:55.792Z,8.00
2019-02-12T12:48:00.803Z,8.30
2019-02-12T12:53:07.100Z,8.70
2019-02-12T12:58:12.071Z,8.60
2019-02-12T13:03:17.213Z,8.70
2019-02-12T13:08:22.212Z,8.60
2019-02-12T13:13:27.253Z,8.30
2019-02-12T13:18:32.233Z,8.00
2019-02-12T13:23:37.248Z,7.80
2019-02-12T13:28:45.314Z,7.80
2019-02-12T13:33:50.300Z,7.90
2019-02-12T13:38:55.345Z,7.90
2019-02-12T13:44:00.334Z,7.90
2019-02-12T13:49:05.344Z,8.00
2019-02-12T13:54:10.369Z,8.00
2019-02-12T13:59:15.359Z,8.40
2019-02-12T14:04:20.470Z,8.50
2019-02-12T14:09:25.494Z,8.50
2019-02-12T14:14:30.470Z,8.50
2019-02-12T14:19:35.499Z,8.50
2019-02-12T14:24:40.484Z,8.50
2019-02-12T14:29:45.471Z,8.60
2019-02-12T14:34:50.457Z,8.50
2019-02-12T14:39:55.437Z,8.60
2019-02-12T14:45:00.435Z,8.70
2019-02-12T14:50:05.871Z,8.70
2019-02-12T14:55:10.963Z,8.60
2019-02-12T15:00:16.016Z,8.50
2019-02-12T15:05:21.087Z,8.60
2019-02-12T15:10:26.042Z,8.60
2019-02-12T15:15:34.348Z,8.60
2019-02-12T15:20:39.330Z,8.70
2019-02-12T15:25:44.323Z,8.80
2019-02-12T15:30:49.295Z,8.80
2019-02-12T15:35:55.438Z,8.70
2019-02-12T15:41:00.579Z,8.60
2019-02-12T15:46:06.170Z,8.50
2019-02-12T15:51:13.251Z,8.30
2019-02-12T15:56:18.239Z,8.10
2019-02-12T16:01:26.602Z,7.80
2019-02-12T16:06:31.556Z,7.60
2019-02-12T16:11:36.578Z,7.40
2019-02-12T16:16:41.612Z,7.30
2019-02-12T16:21:46.627Z,7.20
2019-02-12T16:26:51.627Z,7.20
2019-02-12T16:31:56.643Z,7.00
2019-02-12T16:37:02.986Z,7.00
2019-02-12T16:42:08.030Z,7.00
2019-02-12T16:47:13.066Z,6.90
2019-02-12T16:52:21.098Z,6.90
2019-02-12T16:57:26.266Z,7.00
2019-02-12T17:02:32.077Z,6.90
2019-02-12T17:07:37.362Z,6.90
2019-02-12T17:12:42.981Z,7.00
2019-02-12T17:17:48.025Z,7.00
2019-02-12T17:22:53.093Z,7.00
2019-02-12T17:27:58.570Z,6.90
2019-02-12T17:33:03.559Z,6.90
2019-02-12T17:38:09.030Z,6.80
2019-02-12T17:43:14.087Z,6.80
2019-02-12T17:48:19.304Z,6.80
2019-02-12T17:53:26.287Z,6.70
2019-02-12T17:58:31.322Z,6.60
2019-02-12T18:03:36.355Z,6.50
2019-02-12T18:08:41.373Z,6.60
2019-02-12T18:13:49.310Z,6.60
2019-02-12T18:18:54.539Z,6.60
2019-02-12T18:23:59.864Z,6.70
2019-02-12T18:29:04.852Z,6.70
2019-02-12T18:34:10.005Z,6.60
2019-02-12T18:39:15.143Z,6.60
2019-02-12T18:44:20.068Z,6.60
2019-02-12T18:49:25.413Z,6.40
2019-02-12T18:54:33.667Z,6.50
2019-02-12T18:59:38.649Z,6.50
2019-02-12T19:04:43.637Z,6.50
2019-02-12T19:09:49.493Z,6.50
2019-02-12T19:14:54.471Z,6.50
2019-02-12T19:19:59.459Z,6.50
2019-02-12T19:25:04.676Z,6.40
2019-02-12T19:30:11.683Z,6.30
2019-02-12T19:35:16.679Z,6.20
2019-02-12T19:40:21.691Z,6.10
2019-02-12T19:45:26.682Z,6.10
2019-02-12T19:50:31.734Z,6.10
2019-02-12T19:55:36.743Z,6.10
2019-02-12T20:00:41.725Z,6.00
2019-02-12T20:05:46.719Z,5.90
2019-02-12T20:10:51.972Z,5.80
2019-02-12T20:15:57.119Z,5.80
2019-02-12T20:21:02.145Z,5.80
2019-02-12T20:26:07.173Z,5.90
2019-02-12T20:31:12.148Z,6.00
2019-02-12T20:36:17.131Z,5.90
2019-02-12T20:41:22.136Z,5.90
2019-02-12T20:46:27.122Z,5.80
2019-02-12T20:51:32.103Z,5.70
2019-02-12T20:56:37.112Z,5.60
2019-02-12T21:01:42.147Z,5.60
2019-02-12T21:06:47.131Z,5.60
2019-02-12T21:11:52.280Z,5.60
2019-02-12T21:16:57.280Z,5.70
2019-02-12T21:22:02.363Z,5.90
2019-02-12T21:27:07.395Z,5.90
2019-02-12T21:32:12.419Z,6.00
2019-02-12T21:37:17.412Z,6.00
2019-02-12T21:42:22.523Z,6.00
2019-02-12T21:47:27.558Z,6.00
2019-02-12T21:52:32.555Z,6.00
2019-02-12T21:57:37.531Z,6.10
2019-02-12T22:02:42.527Z,6.10
2019-02-12T22:07:48.052Z,6.10
2019-02-12T22:12:53.206Z,6.20
2019-02-12T22:17:58.207Z,6.20
2019-02-12T22:23:03.767Z,6.20
2019-02-12T22:28:09.212Z,6.20
2019-02-12T22:33:14.219Z,6.20
2019-02-12T22:38:19.664Z,6.20
2019-02-12T22:43:26.661Z,6.20
2019-02-12T22:48:32.496Z,6.20
2019-02-12T22:53:39.039Z,6.30
2019-02-12T22:58:44.479Z,6.30
2019-02-12T23:03:52.485Z,6.30
2019-02-12T23:08:57.887Z,6.30
2019-02-12T23:14:04.092Z,6.30
2019-02-12T23:19:10.918Z,6.40
2019-02-12T23:24:15.931Z,6.40
2019-02-12T23:29:20.940Z,6.40
2019-02-12T23:34:25.922Z,6.40
2019-02-12T23:39:30.916Z,6.40
2019-02-12T23:44:35.914Z,6.50
2019-02-12T23:49:40.908Z,6.40
2019-02-12T23:54:45.915Z,6.40
2019-02-12T23:59:50.963Z,6.50
